sensor_id;sensor_type;location;lat;lon;timestamp;pressure;altitude;pressure_sealevel;temperature;humidity
66164;BME280;52962;51.088;3.096;2023-10-08T00:01:37;102135.47;;;16.23;100.00
66164;BME280;52962;51.088;3.096;2023-10-08T00:04:09;102126.84;;;16.37;100.00
66164;BME280;52962;51.088;3.096;2023-10-08T00:06:38;102132.13;;;16.35;100.00
66164;BME280;52962;51.088;3.096;2023-10-08T00:09:06;102138.00;;;16.16;100.00
66164;BME280;52962;51.088;3.096;2023-10-08T00:11:37;102139.78;;;16.17;100.00
66164;BME280;52962;51.088;3.096;2023-10-08T00:14:06;102140.63;;;16.14;100.00
66164;BME280;52962;51.088;3.096;2023-10-08T00:16:37;102149.38;;;16.09;100.00
66164;BME280;52962;51.088;3.096;2023-10-08T00:19:06;102147.47;;;16.01;100.00
66164;BME280;52962;51.088;3.096;2023-10-08T00:21:41;102146.50;;;15.96;100.00
66164;BME280;52962;51.088;3.096;2023-10-08T00:24:11;102145.59;;;15.96;100.00
66164;BME280;52962;51.088;3.096;2023-10-08T00:26:41;102150.84;;;15.93;100.00
66164;BME280;52962;51.088;3.096;2023-10-08T00:29:10;102156.22;;;15.96;100.00
66164;BME280;52962;51.088;3.096;2023-10-08T00:31:48;102158.06;;;16.00;100.00
66164;BME280;52962;51.088;3.096;2023-10-08T00:34:17;102158.13;;;16.03;100.00
66164;BME280;52962;51.088;3.096;2023-10-08T00:36:47;102153.69;;;16.02;100.00
66164;BME280;52962;51.088;3.096;2023-10-08T00:39:15;102166.91;;;15.99;100.00
66164;BME280;52962;51.088;3.096;2023-10-08T00:41:52;102172.22;;;15.99;100.00
66164;BME280;52962;51.088;3.096;2023-10-08T00:44:26;102171.38;;;16.01;100.00
66164;BME280;52962;51.088;3.096;2023-10-08T00:46:58;102162.47;;;15.98;100.00
66164;BME280;52962;51.088;3.096;2023-10-08T00:49:28;102166.00;;;15.98;100.00
66164;BME280;52962;51.088;3.096;2023-10-08T00:52:15;102170.38;;;15.95;100.00
66164;BME280;52962;51.088;3.096;2023-10-08T00:54:58;102166.78;;;15.93;100.00
66164;BME280;52962;51.088;3.096;2023-10-08T00:57:43;102163.19;;;15.91;100.00
66164;BME280;52962;51.088;3.096;2023-10-08T01:00:15;102157.84;;;15.88;100.00
66164;BME280;52962;51.088;3.096;2023-10-08T01:02:48;102169.28;;;15.85;100.00
66164;BME280;52962;51.088;3.096;2023-10-08T01:05:25;102169.28;;;15.85;100.00
66164;BME280;52962;51.088;3.096;2023-10-08T01:08:09;102163.16;;;15.88;100.00
66164;BME280;52962;51.088;3.096;2023-10-08T01:10:41;102172.81;;;15.84;100.00
66164;BME280;52962;51.088;3.096;2023-10-08T01:13:15;102177.28;;;15.87;100.00
66164;BME280;52962;51.088;3.096;2023-10-08T01:15:47;102173.09;;;15.98;100.00
66164;BME280;52962;51.088;3.096;2023-10-08T01:18:18;102181.06;;;15.98;100.00
66164;BME280;52962;51.088;3.096;2023-10-08T01:20:56;102178.38;;;15.96;100.00
66164;BME280;52962;51.088;3.096;2023-10-08T01:23:32;102175.50;;;15.86;100.00
66164;BME280;52962;51.088;3.096;2023-10-08T01:26:00;102162.94;;;15.77;100.00
66164;BME280;52962;51.088;3.096;2023-10-08T01:28:38;102165.66;;;15.80;100.00
66164;BME280;52962;51.088;3.096;2023-10-08T01:31:07;102157.56;;;15.74;100.00
66164;BME280;52962;51.088;3.096;2023-10-08T01:33:39;102160.19;;;15.73;100.00
66164;BME280;52962;51.088;3.096;2023-10-08T01:36:14;102161.97;;;15.74;100.00
66164;BME280;52962;51.088;3.096;2023-10-08T01:38:43;102146.06;;;15.75;100.00
66164;BME280;52962;51.088;3.096;2023-10-08T01:41:15;102145.16;;;15.75;100.00
66164;BME280;52962;51.088;3.096;2023-10-08T01:43:47;102146.00;;;15.72;100.00
66164;BME280;52962;51.088;3.096;2023-10-08T01:46:16;102137.03;;;15.65;100.00
66164;BME280;52962;51.088;3.096;2023-10-08T01:48:49;102142.25;;;15.61;100.00
66164;BME280;52962;51.088;3.096;2023-10-08T01:51:27;102132.38;;;15.55;100.00
66164;BME280;52962;51.088;3.096;2023-10-08T01:54:05;102143.44;;;15.34;100.00
66164;BME280;52962;51.088;3.096;2023-10-08T01:56:38;102143.63;;;15.42;100.00
66164;BME280;52962;51.088;3.096;2023-10-08T01:59:10;102152.47;;;15.43;100.00
66164;BME280;52962;51.088;3.096;2023-10-08T02:01:40;102148.00;;;15.40;100.00
66164;BME280;52962;51.088;3.096;2023-10-08T02:04:10;102139.00;;;15.33;100.00
66164;BME280;52962;51.088;3.096;2023-10-08T02:06:39;102157.66;;;15.36;100.00
66164;BME280;52962;51.088;3.096;2023-10-08T02:09:09;102153.22;;;15.37;100.00
66164;BME280;52962;51.088;3.096;2023-10-08T02:11:44;102155.16;;;15.44;100.00
66164;BME280;52962;51.088;3.096;2023-10-08T02:14:12;102149.84;;;15.44;100.00
66164;BME280;52962;51.088;3.096;2023-10-08T02:16:43;102136.63;;;15.47;100.00
66164;BME280;52962;51.088;3.096;2023-10-08T02:19:11;102136.63;;;15.47;100.00
66164;BME280;52962;51.088;3.096;2023-10-08T02:21:40;102135.75;;;15.47;100.00
66164;BME280;52962;51.088;3.096;2023-10-08T02:24:14;102139.34;;;15.50;100.00
66164;BME280;52962;51.088;3.096;2023-10-08T02:26:44;102149.91;;;15.47;100.00
66164;BME280;52962;51.088;3.096;2023-10-08T02:29:12;102147.25;;;15.47;100.00
66164;BME280;52962;51.088;3.096;2023-10-08T02:31:41;102150.84;;;15.49;100.00
66164;BME280;52962;51.088;3.096;2023-10-08T02:34:10;102148.16;;;15.48;100.00
66164;BME280;52962;51.088;3.096;2023-10-08T02:36:40;102148.13;;;15.46;100.00
66164;BME280;52962;51.088;3.096;2023-10-08T02:39:10;102149.06;;;15.48;100.00
66164;BME280;52962;51.088;3.096;2023-10-08T02:41:49;102158.88;;;15.52;100.00
66164;BME280;52962;51.088;3.096;2023-10-08T02:44:18;102150.88;;;15.51;100.00
66164;BME280;52962;51.088;3.096;2023-10-08T02:46:48;102159.81;;;15.54;100.00
66164;BME280;52962;51.088;3.096;2023-10-08T02:49:21;102160.69;;;15.55;100.00
66164;BME280;52962;51.088;3.096;2023-10-08T02:51:51;102148.41;;;15.58;100.00
66164;BME280;52962;51.088;3.096;2023-10-08T02:54:21;102144.91;;;15.59;100.00
66164;BME280;52962;51.088;3.096;2023-10-08T02:57:00;102147.53;;;15.61;100.00
66164;BME280;52962;51.088;3.096;2023-10-08T02:59:32;102150.22;;;15.59;100.00
66164;BME280;52962;51.088;3.096;2023-10-08T03:02:10;102148.44;;;15.60;100.00
66164;BME280;52962;51.088;3.096;2023-10-08T03:04:43;102146.66;;;15.60;100.00
66164;BME280;52962;51.088;3.096;2023-10-08T03:07:14;102144.00;;;15.60;100.00
66164;BME280;52962;51.088;3.096;2023-10-08T03:09:52;102148.41;;;15.58;100.00
66164;BME280;52962;51.088;3.096;2023-10-08T03:12:32;102160.72;;;15.56;100.00
66164;BME280;52962;51.088;3.096;2023-10-08T03:15:02;102151.84;;;15.54;100.00
66164;BME280;52962;51.088;3.096;2023-10-08T03:17:40;102158.88;;;15.52;100.00
66164;BME280;52962;51.088;3.096;2023-10-08T03:20:16;102154.41;;;15.50;100.00
66164;BME280;52962;51.088;3.096;2023-10-08T03:23:06;102145.47;;;15.46;100.00
66164;BME280;52962;51.088;3.096;2023-10-08T03:25:40;102157.78;;;15.43;100.00
66164;BME280;52962;51.088;3.096;2023-10-08T03:28:11;102155.97;;;15.40;100.00
66164;BME280;52962;51.088;3.096;2023-10-08T03:30:40;102156.00;;;15.42;100.00
66164;BME280;52962;51.088;3.096;2023-10-08T03:33:18;102148.06;;;15.43;100.00
66164;BME280;52962;51.088;3.096;2023-10-08T03:35:51;102156.03;;;15.43;100.00
66164;BME280;52962;51.088;3.096;2023-10-08T03:38:22;102169.44;;;15.49;100.00
66164;BME280;52962;51.088;3.096;2023-10-08T03:40:57;102162.31;;;15.48;100.00
66164;BME280;52962;51.088;3.096;2023-10-08T03:43:29;102164.09;;;15.48;100.00
66164;BME280;52962;51.088;3.096;2023-10-08T03:46:10;102166.78;;;15.49;100.00
66164;BME280;52962;51.088;3.096;2023-10-08T03:48:42;102157.00;;;15.48;100.00
66164;BME280;52962;51.088;3.096;2023-10-08T03:51:11;102166.72;;;15.46;100.00
66164;BME280;52962;51.088;3.096;2023-10-08T03:53:41;102179.13;;;15.47;100.00
66164;BME280;52962;51.088;3.096;2023-10-08T03:56:25;102180.03;;;15.49;100.00
66164;BME280;52962;51.088;3.096;2023-10-08T03:58:58;102173.91;;;15.52;100.00
66164;BME280;52962;51.088;3.096;2023-10-08T04:01:30;102179.25;;;15.53;100.00
66164;BME280;52962;51.088;3.096;2023-10-08T04:04:00;102185.50;;;15.55;100.00
66164;BME280;52962;51.088;3.096;2023-10-08T04:06:28;102184.59;;;15.55;100.00
66164;BME280;52962;51.088;3.096;2023-10-08T04:08:57;102183.69;;;15.54;100.00
66164;BME280;52962;51.088;3.096;2023-10-08T04:11:39;102181.00;;;15.53;100.00
66164;BME280;52962;51.088;3.096;2023-10-08T04:14:23;102187.22;;;15.53;100.00
66164;BME280;52962;51.088;3.096;2023-10-08T04:16:52;102185.50;;;15.55;100.00
66164;BME280;52962;51.088;3.096;2023-10-08T04:19:21;102183.63;;;15.51;100.00
66164;BME280;52962;51.088;3.096;2023-10-08T04:21:54;102182.75;;;15.51;100.00
66164;BME280;52962;51.088;3.096;2023-10-08T04:24:22;102183.50;;;15.45;100.00
66164;BME280;52962;51.088;3.096;2023-10-08T04:26:56;102188.94;;;15.51;100.00
66164;BME280;52962;51.088;3.096;2023-10-08T04:29:26;102189.13;;;15.60;100.00
66164;BME280;52962;51.088;3.096;2023-10-08T04:31:59;102183.00;;;15.63;100.00
66164;BME280;52962;51.088;3.096;2023-10-08T04:34:34;102180.34;;;15.63;100.00
66164;BME280;52962;51.088;3.096;2023-10-08T04:37:03;102183.94;;;15.65;100.00
66164;BME280;52962;51.088;3.096;2023-10-08T04:39:40;102176.81;;;15.64;100.00
66164;BME280;52962;51.088;3.096;2023-10-08T04:42:14;102182.13;;;15.64;100.00
66164;BME280;52962;51.088;3.096;2023-10-08T04:44:46;102184.81;;;15.65;100.00
66164;BME280;52962;51.088;3.096;2023-10-08T04:47:14;102189.28;;;15.66;100.00
66164;BME280;52962;51.088;3.096;2023-10-08T04:49:58;102183.16;;;15.70;100.00
66164;BME280;52962;51.088;3.096;2023-10-08T04:52:27;102182.28;;;15.72;100.00
66164;BME280;52962;51.088;3.096;2023-10-08T04:54:56;102185.63;;;15.61;100.00
66164;BME280;52962;51.088;3.096;2023-10-08T04:57:32;102181.16;;;15.60;100.00
66164;BME280;52962;51.088;3.096;2023-10-08T05:00:03;102179.47;;;15.64;100.00
66164;BME280;52962;51.088;3.096;2023-10-08T05:02:39;102180.44;;;15.67;100.00
66164;BME280;52962;51.088;3.096;2023-10-08T05:05:16;102184.88;;;15.68;100.00
66164;BME280;52962;51.088;3.096;2023-10-08T05:07:50;102178.72;;;15.69;100.00
66164;BME280;52962;51.088;3.096;2023-10-08T05:10:36;102184.91;;;15.70;100.00
66164;BME280;52962;51.088;3.096;2023-10-08T05:13:28;102180.47;;;15.69;100.00
66164;BME280;52962;51.088;3.096;2023-10-08T05:16:03;102170.81;;;15.73;100.00
66164;BME280;52962;51.088;3.096;2023-10-08T05:18:56;102185.81;;;15.70;100.00
66164;BME280;52962;51.088;3.096;2023-10-08T05:21:35;102172.63;;;15.75;100.00
66164;BME280;52962;51.088;3.096;2023-10-08T05:24:19;102178.00;;;15.78;100.00
66164;BME280;52962;51.088;3.096;2023-10-08T05:26:55;102186.00;;;15.80;100.00
66164;BME280;52962;51.088;3.096;2023-10-08T05:29:46;102191.38;;;15.83;100.00
66164;BME280;52962;51.088;3.096;2023-10-08T05:32:46;102201.16;;;15.85;100.00
66164;BME280;52962;51.088;3.096;2023-10-08T05:35:33;102199.44;;;15.87;100.00
66164;BME280;52962;51.088;3.096;2023-10-08T05:38:18;102195.94;;;15.90;100.00
66164;BME280;52962;51.088;3.096;2023-10-08T05:40:51;102198.63;;;15.91;100.00
66164;BME280;52962;51.088;3.096;2023-10-08T05:43:33;102196.94;;;15.95;100.00
66164;BME280;52962;51.088;3.096;2023-10-08T05:46:16;102197.91;;;15.98;100.00
66164;BME280;52962;51.088;3.096;2023-10-08T05:49:02;102208.56;;;16.00;100.00
66164;BME280;52962;51.088;3.096;2023-10-08T05:51:52;102206.78;;;16.00;100.00
66164;BME280;52962;51.088;3.096;2023-10-08T05:54:33;102200.63;;;16.01;100.00
66164;BME280;52962;51.088;3.096;2023-10-08T05:57:14;102198.91;;;16.05;100.00
66164;BME280;52962;51.088;3.096;2023-10-08T05:59:51;102198.00;;;16.05;100.00
66164;BME280;52962;51.088;3.096;2023-10-08T06:02:36;102194.53;;;16.07;100.00
66164;BME280;52962;51.088;3.096;2023-10-08T06:05:28;102196.31;;;16.08;100.00
66164;BME280;52962;51.088;3.096;2023-10-08T06:08:00;102190.13;;;16.09;100.00
66164;BME280;52962;51.088;3.096;2023-10-08T06:10:39;102192.78;;;16.09;100.00
66164;BME280;52962;51.088;3.096;2023-10-08T06:13:13;102193.72;;;16.11;100.00
66164;BME280;52962;51.088;3.096;2023-10-08T06:15:44;102198.09;;;16.09;100.00
66164;BME280;52962;51.088;3.096;2023-10-08T06:18:15;102197.22;;;16.09;100.00
66164;BME280;52962;51.088;3.096;2023-10-08T06:20:44;102200.66;;;16.05;100.00
66164;BME280;52962;51.088;3.096;2023-10-08T06:23:14;102207.75;;;16.04;100.00
66164;BME280;52962;51.088;3.096;2023-10-08T06:25:44;102205.91;;;16.00;100.00
66164;BME280;52962;51.088;3.096;2023-10-08T06:28:20;102202.31;;;15.98;100.00
66164;BME280;52962;51.088;3.096;2023-10-08T06:30:53;102205.84;;;15.97;100.00
66164;BME280;52962;51.088;3.096;2023-10-08T06:33:23;102200.47;;;15.94;100.00
66164;BME280;52962;51.088;3.096;2023-10-08T06:36:01;102196.00;;;15.93;100.00
66164;BME280;52962;51.088;3.096;2023-10-08T06:38:33;102197.78;;;15.92;100.00
66164;BME280;52962;51.088;3.096;2023-10-08T06:41:02;102202.19;;;15.92;100.00
66164;BME280;52962;51.088;3.096;2023-10-08T06:43:36;102209.28;;;15.93;100.00
66164;BME280;52962;51.088;3.096;2023-10-08T06:46:05;102212.88;;;15.95;100.00
66164;BME280;52962;51.088;3.096;2023-10-08T06:48:35;102218.25;;;15.98;100.00
66164;BME280;52962;51.088;3.096;2023-10-08T06:51:07;102218.31;;;16.01;100.00
66164;BME280;52962;51.088;3.096;2023-10-08T06:53:40;102220.06;;;16.00;100.00
66164;BME280;52962;51.088;3.096;2023-10-08T06:56:09;102224.56;;;16.03;100.00
66164;BME280;52962;51.088;3.096;2023-10-08T06:58:39;102226.38;;;16.06;100.00
66164;BME280;52962;51.088;3.096;2023-10-08T07:01:12;102222.84;;;16.07;100.00
66164;BME280;52962;51.088;3.096;2023-10-08T07:03:48;102226.38;;;16.06;100.00
66164;BME280;52962;51.088;3.096;2023-10-08T07:06:19;102229.06;;;16.07;100.00
66164;BME280;52962;51.088;3.096;2023-10-08T07:08:59;102234.44;;;16.10;100.00
66164;BME280;52962;51.088;3.096;2023-10-08T07:11:30;102227.41;;;16.12;100.00
66164;BME280;52962;51.088;3.096;2023-10-08T07:14:02;102230.94;;;16.13;100.00
66164;BME280;52962;51.088;3.096;2023-10-08T07:16:31;102229.25;;;16.16;100.00
66164;BME280;52962;51.088;3.096;2023-10-08T07:19:00;102226.66;;;16.19;100.00
66164;BME280;52962;51.088;3.096;2023-10-08T07:21:46;102224.06;;;16.22;100.00
66164;BME280;52962;51.088;3.096;2023-10-08T07:24:14;102232.06;;;16.24;100.00
66164;BME280;52962;51.088;3.096;2023-10-08T07:26:48;102237.38;;;16.24;100.00
66164;BME280;52962;51.088;3.096;2023-10-08T07:29:19;102236.53;;;16.26;100.00
66164;BME280;52962;51.088;3.096;2023-10-08T07:31:47;102239.28;;;16.31;100.00
66164;BME280;52962;51.088;3.096;2023-10-08T07:34:19;102234.03;;;16.34;100.00
66164;BME280;52962;51.088;3.096;2023-10-08T07:36:54;102248.31;;;16.39;100.00
66164;BME280;52962;51.088;3.096;2023-10-08T07:39:23;102238.63;;;16.43;100.00
66164;BME280;52962;51.088;3.096;2023-10-08T07:42:02;102241.34;;;16.47;100.00
66164;BME280;52962;51.088;3.096;2023-10-08T07:44:32;102241.44;;;16.52;100.00
66164;BME280;52962;51.088;3.096;2023-10-08T07:47:03;102238.84;;;16.55;100.00
66164;BME280;52962;51.088;3.096;2023-10-08T07:49:37;102231.84;;;16.60;100.00
66164;BME280;52962;51.088;3.096;2023-10-08T07:52:07;102238.16;;;16.66;100.00
66164;BME280;52962;51.088;3.096;2023-10-08T07:54:35;102232.06;;;16.72;100.00
66164;BME280;52962;51.088;3.096;2023-10-08T07:57:03;102244.56;;;16.78;100.00
66164;BME280;52962;51.088;3.096;2023-10-08T07:59:39;102235.78;;;16.83;100.00
66164;BME280;52962;51.088;3.096;2023-10-08T08:02:09;102237.69;;;16.90;100.00
66164;BME280;52962;51.088;3.096;2023-10-08T08:04:38;102242.22;;;16.96;100.00
66164;BME280;52962;51.088;3.096;2023-10-08T08:07:08;102243.22;;;17.03;100.00
66164;BME280;52962;51.088;3.096;2023-10-08T08:09:43;102235.31;;;17.09;100.00
66164;BME280;52962;51.088;3.096;2023-10-08T08:12:18;102238.09;;;17.15;100.00
66164;BME280;52962;51.088;3.096;2023-10-08T08:14:49;102241.72;;;17.20;100.00
66164;BME280;52962;51.088;3.096;2023-10-08T08:17:18;102240.88;;;17.24;100.00
66164;BME280;52962;51.088;3.096;2023-10-08T08:19:48;102241.84;;;17.29;100.00
66164;BME280;52962;51.088;3.096;2023-10-08T08:22:19;102242.84;;;17.36;100.00
66164;BME280;52962;51.088;3.096;2023-10-08T08:24:50;102250.03;;;17.41;100.00
66164;BME280;52962;51.088;3.096;2023-10-08T08:27:24;102247.44;;;17.47;100.00
66164;BME280;52962;51.088;3.096;2023-10-08T08:30:00;102251.97;;;17.53;100.00
66164;BME280;52962;51.088;3.096;2023-10-08T08:32:37;102262.72;;;17.60;100.00
66164;BME280;52962;51.088;3.096;2023-10-08T08:35:07;102249.53;;;17.70;100.00
66164;BME280;52962;51.088;3.096;2023-10-08T08:37:38;102251.38;;;17.75;100.00
66164;BME280;52962;51.088;3.096;2023-10-08T08:40:08;102247.91;;;17.81;100.00
66164;BME280;52962;51.088;3.096;2023-10-08T08:42:45;102255.13;;;17.88;100.00
66164;BME280;52962;51.088;3.096;2023-10-08T08:45:18;102255.19;;;17.94;100.00
66164;BME280;52962;51.088;3.096;2023-10-08T08:47:47;102257.97;;;18.03;100.00
66164;BME280;52962;51.088;3.096;2023-10-08T08:50:16;102255.34;;;18.06;100.00
66164;BME280;52962;51.088;3.096;2023-10-08T08:52:47;102255.41;;;18.11;100.00
66164;BME280;52962;51.088;3.096;2023-10-08T08:55:16;102258.13;;;18.15;100.00
66164;BME280;52962;51.088;3.096;2023-10-08T08:57:46;102255.50;;;18.18;100.00
66164;BME280;52962;51.088;3.096;2023-10-08T09:00:15;102249.38;;;18.27;100.00
66164;BME280;52962;51.088;3.096;2023-10-08T09:02:45;102245.78;;;18.25;100.00
66164;BME280;52962;51.088;3.096;2023-10-08T09:05:16;102246.69;;;18.25;100.00
66164;BME280;52962;51.088;3.096;2023-10-08T09:07:56;102244.03;;;18.28;100.00
66164;BME280;52962;51.088;3.096;2023-10-08T09:10:26;102254.78;;;18.36;100.00
66164;BME280;52962;51.088;3.096;2023-10-08T09:12:56;102268.22;;;18.44;100.00
66164;BME280;52962;51.088;3.096;2023-10-08T09:15:26;102261.16;;;18.49;100.00
66164;BME280;52962;51.088;3.096;2023-10-08T09:17:54;102266.53;;;18.52;100.00
66164;BME280;52962;51.088;3.096;2023-10-08T09:20:23;102277.25;;;18.58;100.00
66164;BME280;52962;51.088;3.096;2023-10-08T09:23:06;102274.72;;;18.69;100.00
66164;BME280;52962;51.088;3.096;2023-10-08T09:25:35;102273.00;;;18.77;100.00
66164;BME280;52962;51.088;3.096;2023-10-08T09:28:03;102283.78;;;18.87;100.00
66164;BME280;52962;51.088;3.096;2023-10-08T09:30:34;102284.75;;;18.95;100.00
66164;BME280;52962;51.088;3.096;2023-10-08T09:33:05;102283.06;;;19.07;100.00
66164;BME280;52962;51.088;3.096;2023-10-08T09:35:34;102286.69;;;19.15;100.00
66164;BME280;52962;51.088;3.096;2023-10-08T09:38:06;102282.28;;;19.21;100.00
66164;BME280;52962;51.088;3.096;2023-10-08T09:40:36;102272.59;;;19.34;100.00
66164;BME280;52962;51.088;3.096;2023-10-08T09:43:05;102274.44;;;19.44;100.00
66164;BME280;52962;51.088;3.096;2023-10-08T09:45:36;102268.28;;;19.51;100.00
66164;BME280;52962;51.088;3.096;2023-10-08T09:48:11;102269.22;;;19.58;100.00
66164;BME280;52962;51.088;3.096;2023-10-08T09:50:41;102269.25;;;19.64;100.00
66164;BME280;52962;51.088;3.096;2023-10-08T09:53:12;102280.84;;;19.65;100.00
66164;BME280;52962;51.088;3.096;2023-10-08T09:55:44;102289.78;;;19.74;100.00
66164;BME280;52962;51.088;3.096;2023-10-08T09:58:15;102288.00;;;19.79;100.00
66164;BME280;52962;51.088;3.096;2023-10-08T10:00:45;102295.16;;;19.83;100.00
66164;BME280;52962;51.088;3.096;2023-10-08T10:03:16;102282.69;;;19.87;100.00
66164;BME280;52962;51.088;3.096;2023-10-08T10:05:48;102273.78;;;19.88;100.00
66164;BME280;52962;51.088;3.096;2023-10-08T10:08:18;102276.50;;;19.97;100.00
66164;BME280;52962;51.088;3.096;2023-10-08T10:10:58;102274.75;;;20.01;100.00
66164;BME280;52962;51.088;3.096;2023-10-08T10:13:27;102272.97;;;20.06;100.00
66164;BME280;52962;51.088;3.096;2023-10-08T10:15:56;102273.03;;;20.22;100.00
66164;BME280;52962;51.088;3.096;2023-10-08T10:18:30;102280.22;;;20.33;100.00
66164;BME280;52962;51.088;3.096;2023-10-08T10:21:28;102279.41;;;20.46;100.00
66164;BME280;52962;51.088;3.096;2023-10-08T10:23:59;102281.22;;;20.67;100.00
66164;BME280;52962;51.088;3.096;2023-10-08T10:26:29;102280.31;;;20.90;100.00
66164;BME280;52962;51.088;3.096;2023-10-08T10:29:20;102271.41;;;20.96;100.00
66164;BME280;52962;51.088;3.096;2023-10-08T10:31:50;102276.75;;;21.04;100.00
66164;BME280;52962;51.088;3.096;2023-10-08T10:34:22;102276.75;;;21.08;100.00
66164;BME280;52962;51.088;3.096;2023-10-08T10:36:54;102276.75;;;21.07;100.00
66164;BME280;52962;51.088;3.096;2023-10-08T10:39:31;102272.31;;;21.27;100.00
66164;BME280;52962;51.088;3.096;2023-10-08T10:42:01;102274.09;;;21.28;100.00
66164;BME280;52962;51.088;3.096;2023-10-08T10:44:33;102274.09;;;21.25;100.00
66164;BME280;52962;51.088;3.096;2023-10-08T10:47:04;102274.09;;;21.25;100.00
66164;BME280;52962;51.088;3.096;2023-10-08T10:49:47;102278.56;;;21.32;100.00
66164;BME280;52962;51.088;3.096;2023-10-08T10:52:21;102272.28;;;21.38;100.00
66164;BME280;52962;51.088;3.096;2023-10-08T10:55:02;102268.69;;;21.49;100.00
66164;BME280;52962;51.088;3.096;2023-10-08T10:57:47;102265.97;;;21.71;100.00
66164;BME280;52962;51.088;3.096;2023-10-08T11:00:24;102258.72;;;21.85;100.00
66164;BME280;52962;51.088;3.096;2023-10-08T11:03:10;102253.31;;;22.03;100.00
66164;BME280;52962;51.088;3.096;2023-10-08T11:05:48;102249.72;;;22.10;100.00
66164;BME280;52962;51.088;3.096;2023-10-08T11:08:19;102246.09;;;22.19;100.00
66164;BME280;52962;51.088;3.096;2023-10-08T11:10:52;102241.66;;;22.15;100.00
66164;BME280;52962;51.088;3.096;2023-10-08T11:13:25;102241.63;;;22.16;100.00
66164;BME280;52962;51.088;3.096;2023-10-08T11:16:05;102241.66;;;22.15;100.00
66164;BME280;52962;51.088;3.096;2023-10-08T11:18:35;102244.31;;;22.19;100.00
66164;BME280;52962;51.088;3.096;2023-10-08T11:21:06;102238.91;;;22.26;100.00
66164;BME280;52962;51.088;3.096;2023-10-08T11:23:44;102238.91;;;22.26;100.00
66164;BME280;52962;51.088;3.096;2023-10-08T11:26:22;102247.84;;;22.25;100.00
66164;BME280;52962;51.088;3.096;2023-10-08T11:29:00;102240.69;;;22.24;100.00
66164;BME280;52962;51.088;3.096;2023-10-08T11:31:29;102239.78;;;22.28;100.00
66164;BME280;52962;51.088;3.096;2023-10-08T11:34:02;102237.09;;;22.29;100.00
66164;BME280;52962;51.088;3.096;2023-10-08T11:36:37;102229.91;;;22.33;100.00
66164;BME280;52962;51.088;3.096;2023-10-08T11:39:16;102224.47;;;22.42;100.00
66164;BME280;52962;51.088;3.096;2023-10-08T11:41:58;102226.25;;;22.46;100.00
66164;BME280;52962;51.088;3.096;2023-10-08T11:44:31;102224.47;;;22.45;100.00
66164;BME280;52962;51.088;3.096;2023-10-08T11:47:03;102223.56;;;22.47;100.00
66164;BME280;52962;51.088;3.096;2023-10-08T11:49:41;102212.84;;;22.43;100.00
66164;BME280;52962;51.088;3.096;2023-10-08T11:52:15;102214.66;;;22.39;100.00
66164;BME280;52962;51.088;3.096;2023-10-08T11:54:44;102219.09;;;22.46;100.00
66164;BME280;52962;51.088;3.096;2023-10-08T11:57:16;102207.44;;;22.49;100.00
66164;BME280;52962;51.088;3.096;2023-10-08T11:59:49;102203.78;;;22.58;100.00
66164;BME280;52962;51.088;3.096;2023-10-08T12:02:22;102202.81;;;22.66;100.00
66164;BME280;52962;51.088;3.096;2023-10-08T12:04:50;102201.00;;;22.71;100.00
66164;BME280;52962;51.088;3.096;2023-10-08T12:07:19;102201.00;;;22.71;100.00
66164;BME280;52962;51.088;3.096;2023-10-08T12:09:47;102193.81;;;22.73;100.00
66164;BME280;52962;51.088;3.096;2023-10-08T12:12:18;102192.91;;;22.74;100.00
66164;BME280;52962;51.088;3.096;2023-10-08T12:14:50;102192.91;;;22.76;100.00
66164;BME280;52962;51.088;3.096;2023-10-08T12:17:22;102185.75;;;22.73;100.00
66164;BME280;52962;51.088;3.096;2023-10-08T12:20:05;102182.19;;;22.71;100.00
66164;BME280;52962;51.088;3.096;2023-10-08T12:22:50;102174.97;;;22.82;100.00
66164;BME280;52962;51.088;3.096;2023-10-08T12:25:19;102170.47;;;22.85;100.00
66164;BME280;52962;51.088;3.096;2023-10-08T12:27:49;102170.34;;;22.94;100.00
66164;BME280;52962;51.088;3.096;2023-10-08T12:30:17;102165.84;;;22.96;100.00
66164;BME280;52962;51.088;3.096;2023-10-08T12:32:45;102168.47;;;23.02;100.00
66164;BME280;52962;51.088;3.096;2023-10-08T12:35:14;102173.81;;;23.05;100.00
66164;BME280;52962;51.088;3.096;2023-10-08T12:37:42;102177.34;;;23.11;100.00
66164;BME280;52962;51.088;3.096;2023-10-08T12:40:11;102170.13;;;23.15;100.00
66164;BME280;52962;51.088;3.096;2023-10-08T12:42:52;102170.06;;;23.21;100.00
66164;BME280;52962;51.088;3.096;2023-10-08T12:45:21;102173.63;;;23.23;100.00
66164;BME280;52962;51.088;3.096;2023-10-08T12:47:49;102170.03;;;23.24;100.00
66164;BME280;52962;51.088;3.096;2023-10-08T12:50:19;102161.09;;;23.22;100.00
66164;BME280;52962;51.088;3.096;2023-10-08T12:52:56;102161.09;;;23.22;100.00
66164;BME280;52962;51.088;3.096;2023-10-08T12:55:30;102164.66;;;23.24;100.00
66164;BME280;52962;51.088;3.096;2023-10-08T12:58:04;102160.81;;;23.46;100.00
66164;BME280;52962;51.088;3.096;2023-10-08T13:00:36;102155.44;;;23.46;100.00
66164;BME280;52962;51.088;3.096;2023-10-08T13:03:09;102148.16;;;23.59;100.00
66164;BME280;52962;51.088;3.096;2023-10-08T13:05:42;102150.81;;;23.62;100.00
66164;BME280;52962;51.088;3.096;2023-10-08T13:08:11;102143.53;;;23.69;100.00
66164;BME280;52962;51.088;3.096;2023-10-08T13:10:40;102149.91;;;23.62;100.00
66164;BME280;52962;51.088;3.096;2023-10-08T13:13:12;102151.53;;;23.75;100.00